Gilby, North Dakota
Current Conditions -  °F | °C
As of 2:58 AM on Friday 24 Oct 2014 (Local Time) from KRDR Reporting Station
Clear Clear  
Wind Chill: 52°   Ceiling: Unl
Heat Index: 52°   Visibility: 10mi
Dew Point: 38°   Wind: 8mph
Humidity: 58%   Direction: 240°WSW
Pressure: 29.75"   Gusts: NA
Location:  48.09°N, 97.47°W
Report Text: KRDR 240758Z AUTO 24007KT 10SM CLR 11/03 A2975 RMK AO2 SLP079 T01130032
Loading
Personal Weather Stations






























Interactive Weather Map
Tropical Storm Tracking
New forecast layout! Learn more

10-Day Weather Forecast

Advertisements
Track Severe Weather on mobile